createdAt,value
2018-02-25T00:00:09.601Z,51.57
2018-02-25T00:01:19.351Z,51.57
2018-02-25T00:02:29.563Z,51.2
2018-02-25T00:03:39.932Z,51.48
2018-02-25T00:04:50.108Z,51.57
2018-02-25T00:05:59.977Z,51.48
2018-02-25T00:07:09.924Z,51.48
2018-02-25T00:08:20.092Z,51.39
2018-02-25T00:09:30.468Z,51.67
2018-02-25T00:10:40.624Z,51.48
2018-02-25T00:11:50.789Z,51.95
2018-02-25T00:13:00.967Z,51.86
2018-02-25T00:14:11.007Z,52.04
2018-02-25T00:15:21.438Z,51.95
2018-02-25T00:16:31.818Z,51.95
2018-02-25T00:17:41.947Z,51.95
2018-02-25T00:18:52.150Z,51.95
2018-02-25T00:20:02.303Z,51.86
2018-02-25T00:21:12.181Z,51.76
2018-02-25T00:22:22.315Z,52.04
2018-02-25T00:23:32.525Z,51.67
2018-02-25T00:24:43.110Z,51.76
2018-02-25T00:25:53.324Z,51.57
2018-02-25T00:27:03.532Z,52.04
2018-02-25T00:28:13.802Z,51.95
2018-02-25T00:29:24.058Z,51.95
2018-02-25T00:30:34.415Z,51.86
2018-02-25T00:31:44.280Z,52.04
2018-02-25T00:32:54.458Z,51.76
2018-02-25T00:34:04.379Z,51.86
2018-02-25T00:35:14.253Z,51.95
2018-02-25T00:36:24.686Z,52.04
2018-02-25T00:37:34.626Z,52.04
2018-02-25T00:38:44.514Z,51.95
2018-02-25T00:39:54.860Z,51.86
2018-02-25T00:41:04.991Z,51.86
2018-02-25T00:42:15.123Z,51.86
2018-02-25T00:43:24.983Z,51.67
2018-02-25T00:44:35.358Z,51.86
2018-02-25T00:45:44.944Z,51.95
2018-02-25T00:46:55.303Z,51.76
2018-02-25T00:48:05.649Z,51.76
2018-02-25T00:49:15.850Z,51.86
2018-02-25T00:50:26.097Z,51.86
2018-02-25T00:51:36.276Z,51.76
2018-02-25T00:52:46.428Z,51.95
2018-02-25T00:53:56.059Z,52.23
2018-02-25T00:55:05.947Z,52.23
2018-02-25T00:56:16.290Z,51.95
2018-02-25T00:57:26.388Z,52.04
2018-02-25T00:58:36.662Z,51.57
2018-02-25T00:59:46.861Z,51.86
2018-02-25T01:00:56.984Z,51.95
2018-02-25T01:02:06.905Z,52.14
2018-02-25T01:03:17.206Z,52.04
2018-02-25T01:04:27.329Z,52.04
2018-02-25T01:05:37.525Z,51.86
2018-02-25T01:06:47.649Z,51.95
2018-02-25T01:07:57.646Z,52.33
2018-02-25T01:09:07.789Z,52.14
2018-02-25T01:10:17.949Z,52.14
2018-02-25T01:11:27.885Z,52.04
2018-02-25T01:12:37.832Z,52.14
2018-02-25T01:13:47.705Z,52.42
2018-02-25T01:14:57.856Z,52.42
2018-02-25T01:16:08.018Z,51.86
2018-02-25T01:17:17.877Z,52.51
2018-02-25T01:18:28.029Z,52.04
2018-02-25T01:19:38.195Z,52.14
2018-02-25T01:20:48.071Z,52.04
2018-02-25T01:21:58.222Z,52.23
2018-02-25T01:23:08.620Z,52.14
2018-02-25T01:24:18.759Z,51.76
2018-02-25T01:25:28.902Z,51.95
2018-02-25T01:26:39.078Z,52.3
2018-02-25T01:27:48.981Z,52.21
2018-02-25T01:28:59.141Z,52.3
2018-02-25T01:30:09.032Z,52.59
2018-02-25T01:31:18.915Z,52.21
2018-02-25T01:32:29.344Z,52.02
2018-02-25T01:33:39.470Z,52.68
2018-02-25T01:34:49.352Z,52.96
2018-02-25T01:35:59.529Z,52.3
2018-02-25T01:37:09.642Z,52.59
2018-02-25T01:38:19.222Z,52.68
2018-02-25T01:39:29.182Z,52.78
2018-02-25T01:40:39.366Z,52.49
2018-02-25T01:41:49.592Z,52.4
2018-02-25T01:42:59.962Z,52.3
2018-02-25T01:44:10.253Z,52.68
2018-02-25T01:45:20.436Z,52.4
2018-02-25T01:46:29.976Z,52.59
2018-02-25T01:47:40.166Z,52.59
2018-02-25T01:48:50.391Z,52.49
2018-02-25T01:50:00.453Z,52.49
2018-02-25T01:51:10.590Z,52.59
2018-02-25T01:52:21.176Z,52.4
2018-02-25T01:53:31.041Z,52.59
2018-02-25T01:54:40.677Z,52.4
2018-02-25T01:55:50.646Z,52.49
2018-02-25T01:57:00.793Z,52.4
2018-02-25T01:58:10.949Z,52.96
2018-02-25T01:59:21.713Z,52.78
2018-02-25T02:00:31.882Z,52.59
2018-02-25T02:01:42.008Z,53.15
2018-02-25T02:02:51.851Z,53.06
2018-02-25T02:04:02.226Z,53.25
2018-02-25T02:05:12.159Z,53.15
2018-02-25T02:06:22.339Z,53.25
2018-02-25T02:07:32.233Z,53.15
2018-02-25T02:08:42.383Z,53.15
2018-02-25T02:09:52.547Z,52.78
2018-02-25T02:11:02.142Z,52.68
2018-02-25T02:12:12.506Z,52.96
2018-02-25T02:13:22.583Z,53.15
2018-02-25T02:14:32.752Z,53.15
2018-02-25T02:15:42.870Z,53.06
2018-02-25T02:16:52.772Z,52.78
2018-02-25T02:18:02.832Z,53.15
2018-02-25T02:19:13.160Z,53.06
2018-02-25T02:20:23.308Z,52.59
2018-02-25T02:21:33.449Z,52.68
2018-02-25T02:22:43.432Z,52.49
2018-02-25T02:23:53.612Z,52.4
2018-02-25T02:25:03.779Z,52.59
2018-02-25T02:26:13.990Z,52.49
2018-02-25T02:27:24.124Z,52.68
2018-02-25T02:28:34.333Z,52.59
2018-02-25T02:29:44.448Z,52.49
2018-02-25T02:30:54.564Z,52.59
2018-02-25T02:32:04.679Z,52.78
2018-02-25T02:33:14.476Z,52.68
2018-02-25T02:34:24.369Z,52.68
2018-02-25T02:35:34.468Z,52.78
2018-02-25T02:36:43.957Z,52.59
2018-02-25T02:37:54.599Z,52.49
2018-02-25T02:39:04.473Z,52.59
2018-02-25T02:40:14.811Z,52.68
2018-02-25T02:41:24.985Z,53.34
2018-02-25T02:42:35.258Z,53.06
2018-02-25T02:43:45.514Z,53.25
2018-02-25T02:44:55.640Z,53.15
2018-02-25T02:46:05.844Z,53.25
2018-02-25T02:47:16.010Z,53.15
2018-02-25T02:48:26.423Z,53.06
2018-02-25T02:49:36.552Z,53.53
2018-02-25T02:50:46.338Z,53.63
2018-02-25T02:51:56.505Z,53.44
2018-02-25T02:53:06.649Z,53.53
2018-02-25T02:54:16.859Z,53.44
2018-02-25T02:55:27.117Z,53.44
2018-02-25T02:56:37.280Z,53.34
2018-02-25T02:57:47.404Z,53.25
2018-02-25T02:58:57.024Z,53.53
2018-02-25T03:00:07.187Z,53.25
2018-02-25T03:01:17.325Z,53.25
2018-02-25T03:02:27.179Z,53.44
2018-02-25T03:03:36.715Z,53.06
2018-02-25T03:04:46.609Z,53.06
2018-02-25T03:05:56.698Z,53.15
2018-02-25T03:07:06.869Z,53.25
2018-02-25T03:08:16.697Z,52.59
2018-02-25T03:09:26.875Z,52.59
2018-02-25T03:10:37.082Z,52.68
2018-02-25T03:11:47.245Z,53.15
2018-02-25T03:12:56.801Z,53.34
2018-02-25T03:14:06.390Z,52.68
2018-02-25T03:15:16.264Z,52.87
2018-02-25T03:16:26.389Z,52.78
2018-02-25T03:17:36.597Z,53.34
2018-02-25T03:18:46.776Z,53.06
2018-02-25T03:19:56.989Z,53.15
2018-02-25T03:21:06.845Z,53.06
2018-02-25T03:22:17.026Z,53.34
2018-02-25T03:23:26.940Z,53.25
2018-02-25T03:24:36.818Z,52.68
2018-02-25T03:25:47.032Z,52.68
2018-02-25T03:26:56.928Z,52.21
2018-02-25T03:28:06.811Z,52.21
2018-02-25T03:29:16.971Z,52.78
2018-02-25T03:30:27.094Z,53.15
2018-02-25T03:31:37.228Z,53.25
2018-02-25T03:32:47.082Z,52.87
2018-02-25T03:33:57.247Z,52.87
2018-02-25T03:35:07.148Z,52.78
2018-02-25T03:36:17.114Z,53.25
2018-02-25T03:37:27.276Z,53.44
2018-02-25T03:38:37.043Z,53.34
2018-02-25T03:39:46.641Z,53.34
2018-02-25T03:40:56.746Z,53.44
2018-02-25T03:42:07.105Z,53.63
2018-02-25T03:43:17.001Z,53.15
2018-02-25T03:44:27.339Z,53.53
2018-02-25T03:45:37.490Z,53.34
2018-02-25T03:46:47.779Z,54
2018-02-25T03:47:57.647Z,53.63
2018-02-25T03:49:07.831Z,53.25
2018-02-25T03:50:17.950Z,53.53
2018-02-25T03:51:28.261Z,53.63
2018-02-25T03:52:38.401Z,54
2018-02-25T03:53:48.300Z,53.81
2018-02-25T03:54:57.968Z,53.25
2018-02-25T03:56:08.088Z,53.53
2018-02-25T03:57:18.021Z,53.34
2018-02-25T03:58:28.117Z,53.34
2018-02-25T03:59:38.260Z,53.53
2018-02-25T04:00:48.424Z,53.53
2018-02-25T04:01:58.558Z,53.25
2018-02-25T04:03:08.448Z,53.34
2018-02-25T04:04:18.325Z,53.44
2018-02-25T04:05:28.456Z,53.53
2018-02-25T04:06:38.588Z,53.63
2018-02-25T04:07:48.480Z,53.34
2018-02-25T04:08:58.626Z,53.34
2018-02-25T04:10:08.762Z,53.34
2018-02-25T04:11:18.249Z,54
2018-02-25T04:12:27.656Z,53.81
2018-02-25T04:13:37.649Z,53.63
2018-02-25T04:14:47.802Z,54
2018-02-25T04:15:57.675Z,53.91
2018-02-25T04:17:07.311Z,53.81
2018-02-25T04:18:17.307Z,53.81
2018-02-25T04:19:27.438Z,54
2018-02-25T04:20:37.220Z,54.28
2018-02-25T04:21:47.644Z,54.28
2018-02-25T04:22:57.393Z,54.38
2018-02-25T04:24:07.146Z,54.57
2018-02-25T04:25:17.484Z,54.57
2018-02-25T04:26:27.821Z,55.04
2018-02-25T04:27:37.622Z,54.94
2018-02-25T04:28:47.855Z,55.32
2018-02-25T04:29:57.970Z,55.13
2018-02-25T04:31:07.981Z,55.42
2018-02-25T04:32:18.091Z,55.8
2018-02-25T04:33:28.287Z,55.8
2018-02-25T04:34:38.470Z,55.89
2018-02-25T04:35:48.324Z,56.17
2018-02-25T04:36:58.272Z,55.8
2018-02-25T04:38:08.310Z,56.34
2018-02-25T04:39:18.443Z,56.15
2018-02-25T04:40:28.596Z,56.36
2018-02-25T04:41:38.456Z,56.55
2018-02-25T04:42:48.879Z,56.55
2018-02-25T04:43:59.782Z,56.46
2018-02-25T04:45:09.406Z,56.46
2018-02-25T04:46:19.527Z,56.27
2018-02-25T04:47:29.661Z,56.46
2018-02-25T04:48:39.200Z,56.55
2018-02-25T04:49:49.546Z,56.34
2018-02-25T04:50:59.666Z,56.27
2018-02-25T04:52:09.515Z,56.46
2018-02-25T04:53:19.664Z,56.15
2018-02-25T04:54:29.853Z,56.36
2018-02-25T04:55:40.178Z,56.08
2018-02-25T04:56:50.291Z,56.46
2018-02-25T04:58:00.079Z,55.98
2018-02-25T04:59:10.244Z,55.96
2018-02-25T05:00:20.117Z,56.08
2018-02-25T05:01:30.227Z,55.77
2018-02-25T05:02:40.145Z,55.89
2018-02-25T05:03:50.707Z,55.86
2018-02-25T05:05:00.829Z,55.96
2018-02-25T05:06:10.765Z,55.86
2018-02-25T05:07:20.787Z,56.08
2018-02-25T05:08:30.663Z,56.17
2018-02-25T05:09:40.413Z,56.15
2018-02-25T05:10:50.527Z,56.36
2018-02-25T05:12:00.406Z,56.55
2018-02-25T05:13:10.555Z,56.36
2018-02-25T05:14:20.711Z,56.46
2018-02-25T05:15:30.582Z,56.36
2018-02-25T05:16:40.482Z,56.65
2018-02-25T05:17:50.588Z,56.46
2018-02-25T05:19:03.032Z,56.55
2018-02-25T05:20:12.646Z,56.36
2018-02-25T05:21:22.845Z,56.55
2018-02-25T05:22:32.738Z,56.27
2018-02-25T05:23:42.014Z,56.71
2018-02-25T05:24:52.233Z,56.52
2018-02-25T05:26:02.223Z,56.93
2018-02-25T05:27:12.112Z,56.84
2018-02-25T05:28:22.289Z,57.12
2018-02-25T05:29:32.477Z,57.18
2018-02-25T05:30:42.757Z,57.09
2018-02-25T05:31:52.979Z,56.9
2018-02-25T05:33:03.183Z,56.99
2018-02-25T05:34:13.287Z,57.18
2018-02-25T05:35:23.455Z,57.28
2018-02-25T05:36:33.206Z,57.56
2018-02-25T05:37:43.528Z,57.59
2018-02-25T05:38:53.494Z,57.84
2018-02-25T05:40:03.629Z,57.68
2018-02-25T05:41:13.990Z,57.31
2018-02-25T05:42:24.109Z,57.31
2018-02-25T05:43:34.332Z,57.4
2018-02-25T05:44:44.397Z,57.78
2018-02-25T05:45:57.935Z,57.46
2018-02-25T05:47:08.090Z,57.68
2018-02-25T05:48:18.620Z,57.68
2018-02-25T05:49:29.704Z,57.68
2018-02-25T05:50:39.860Z,57.87
2018-02-25T05:51:50.053Z,57.78
2018-02-25T05:53:00.172Z,58.06
2018-02-25T05:54:09.921Z,58.06
2018-02-25T05:55:20.390Z,57.94
2018-02-25T05:56:30.611Z,57.94
2018-02-25T05:57:40.367Z,57.56
2018-02-25T05:58:50.580Z,57.78
2018-02-25T06:00:00.741Z,57.5
2018-02-25T06:01:10.895Z,57.59
2018-02-25T06:02:21.307Z,57.78
2018-02-25T06:03:31.444Z,57.75
2018-02-25T06:04:41.568Z,58.03
2018-02-25T06:05:51.689Z,58.06
2018-02-25T06:07:01.819Z,58.25
2018-02-25T06:08:11.959Z,57.78
2018-02-25T06:09:21.821Z,57.56
2018-02-25T06:10:31.776Z,57.84
2018-02-25T06:11:41.654Z,57.84
2018-02-25T06:12:51.898Z,57.84
2018-02-25T06:14:02.038Z,57.78
2018-02-25T06:15:11.948Z,57.84
2018-02-25T06:16:22.037Z,57.75
2018-02-25T06:17:32.268Z,57.46
2018-02-25T06:18:42.416Z,58.03
2018-02-25T06:19:52.274Z,58.31
2018-02-25T06:21:02.144Z,58.03
2018-02-25T06:22:12.281Z,58.6
2018-02-25T06:23:22.286Z,58.31
2018-02-25T06:24:32.142Z,58.41
2018-02-25T06:25:42.130Z,58.41
2018-02-25T06:26:52.555Z,58.12
2018-02-25T06:28:02.693Z,58.31
2018-02-25T06:29:13.671Z,58.41
2018-02-25T06:30:23.981Z,58.41
2018-02-25T06:31:34.541Z,58.5
2018-02-25T06:32:44.739Z,58.5
2018-02-25T06:33:55.334Z,58.6
2018-02-25T06:35:06.192Z,58.88
2018-02-25T06:36:16.522Z,58.69
2018-02-25T06:37:26.414Z,58.82
2018-02-25T06:38:37.064Z,58.63
2018-02-25T06:39:47.907Z,58.79
2018-02-25T06:40:58.124Z,58.88
2018-02-25T06:42:08.095Z,58.69
2018-02-25T06:43:18.439Z,58.69
2018-02-25T06:44:28.345Z,58.6
2018-02-25T06:45:39.358Z,58.5
2018-02-25T06:46:49.783Z,58.6
2018-02-25T06:47:59.919Z,58.69
2018-02-25T06:49:10.320Z,58.98
2018-02-25T06:50:20.477Z,58.53
2018-02-25T06:51:30.600Z,58.31
2018-02-25T06:52:40.324Z,58.5
2018-02-25T06:53:50.735Z,58.69
2018-02-25T06:55:01.752Z,58.79
2018-02-25T06:56:11.847Z,58.69
2018-02-25T06:57:22.190Z,58.6
2018-02-25T06:58:32.335Z,58.69
2018-02-25T06:59:42.606Z,58.69
2018-02-25T07:00:52.751Z,58.5
2018-02-25T07:02:02.570Z,58.5
2018-02-25T07:03:12.940Z,58.69
2018-02-25T07:04:23.059Z,58.5
2018-02-25T07:05:33.256Z,58.98
2018-02-25T07:06:43.034Z,58.79
2018-02-25T07:07:53.277Z,59.26
2018-02-25T07:09:03.542Z,59.17
2018-02-25T07:10:15.448Z,58.63
2018-02-25T07:11:25.242Z,58.82
2018-02-25T07:12:35.135Z,58.44
2018-02-25T07:13:45.310Z,58.44
2018-02-25T07:14:55.552Z,58.53
2018-02-25T07:16:05.734Z,58.25
2018-02-25T07:17:16.115Z,58.53
2018-02-25T07:18:26.264Z,58.34
2018-02-25T07:19:36.501Z,58.44
2018-02-25T07:20:46.688Z,58.15
2018-02-25T07:21:56.545Z,58.25
2018-02-25T07:23:06.707Z,58.63
2018-02-25T07:24:17.580Z,58.15
2018-02-25T07:25:27.736Z,58.44
2018-02-25T07:26:37.520Z,57.59
2018-02-25T07:27:47.071Z,57.31
2018-02-25T07:28:57.376Z,56.48
2018-02-25T07:30:07.503Z,55.92
2018-02-25T07:31:17.181Z,55.16
2018-02-25T07:32:27.341Z,54.34
2018-02-25T07:33:37.144Z,52.69
2018-02-25T07:34:47.072Z,51.68
2018-02-25T07:35:57.216Z,50.76
2018-02-25T07:37:07.092Z,49.74
2018-02-25T07:38:17.266Z,48.25
2018-02-25T07:39:27.239Z,47.04
2018-02-25T07:40:37.435Z,45.83
2018-02-25T07:41:47.581Z,44.69
2018-02-25T07:42:57.777Z,43.38
2018-02-25T07:44:07.943Z,41.96
2018-02-25T07:45:18.062Z,40.84
2018-02-25T07:46:28.226Z,40.1
2018-02-25T07:47:38.351Z,38.98
2018-02-25T07:48:48.528Z,37.55
2018-02-25T07:49:58.814Z,36.05
2018-02-25T07:51:08.704Z,35.48
2018-02-25T07:52:18.845Z,34.63
2018-02-25T07:53:28.484Z,33.77
2018-02-25T07:54:38.402Z,33.69
2018-02-25T07:55:48.551Z,32.93
2018-02-25T07:56:58.500Z,32.66
2018-02-25T07:58:08.653Z,31.52
2018-02-25T07:59:18.822Z,31.05
2018-02-25T08:00:28.967Z,30.39
2018-02-25T08:01:39.134Z,29.91
2018-02-25T08:02:49.256Z,29.63
2018-02-25T08:04:00.288Z,29.07
2018-02-25T08:05:10.331Z,28.88
2018-02-25T08:06:20.618Z,28.02
2018-02-25T08:07:31.340Z,27.73
2018-02-25T08:08:42.296Z,27.16
2018-02-25T08:09:52.728Z,27.26
2018-02-25T08:11:02.950Z,27.26
2018-02-25T08:12:12.739Z,27.26
2018-02-25T08:13:22.514Z,26.78
2018-02-25T08:14:32.079Z,26.4
2018-02-25T08:15:41.884Z,25.65
2018-02-25T08:16:51.804Z,26.12
2018-02-25T08:18:01.972Z,26.12
2018-02-25T08:19:12.264Z,26.02
2018-02-25T08:20:22.610Z,25.64
2018-02-25T08:21:32.568Z,25.64
2018-02-25T08:22:42.085Z,25.27
2018-02-25T08:23:52.686Z,25.18
2018-02-25T08:25:02.850Z,24.89
2018-02-25T08:26:13.390Z,24.6
2018-02-25T08:27:23.560Z,24.52
2018-02-25T08:28:33.114Z,24.23
2018-02-25T08:29:43.317Z,24.33
2018-02-25T08:30:53.597Z,23.57
2018-02-25T08:32:03.372Z,23.48
2018-02-25T08:33:13.597Z,23.1
2018-02-25T08:34:25.960Z,23.19
2018-02-25T08:35:36.156Z,23.38
2018-02-25T08:36:46.635Z,23.46
2018-02-25T08:37:56.664Z,23.84
2018-02-25T08:39:06.846Z,23.92
2018-02-25T08:40:17.033Z,23.16
2018-02-25T08:41:26.939Z,23.54
2018-02-25T08:42:37.247Z,22.88
2018-02-25T08:43:47.473Z,22.78
2018-02-25T08:46:12.864Z,22.98
2018-02-25T08:47:25.715Z,22.79
2018-02-25T08:48:35.920Z,22.69
2018-02-25T08:49:46.279Z,22.13
2018-02-25T08:50:56.447Z,21.75
2018-02-25T08:52:06.654Z,21.08
2018-02-25T08:53:16.798Z,20.79
2018-02-25T08:54:26.951Z,20.51
2018-02-25T08:55:37.101Z,20.79
2018-02-25T08:56:47.272Z,20.89
2018-02-25T08:57:57.458Z,20.79
2018-02-25T08:59:07.734Z,20.23
2018-02-25T09:00:17.937Z,19.94
2018-02-25T09:01:28.079Z,19.74
2018-02-25T09:02:38.231Z,19.55
2018-02-25T09:03:48.388Z,19.25
2018-02-25T09:04:58.059Z,19.06
2018-02-25T09:06:08.468Z,19.24
2018-02-25T09:07:18.638Z,18.77
2018-02-25T09:08:28.647Z,18.01
2018-02-25T09:09:38.830Z,18.38
2018-02-25T09:10:48.770Z,18.85
2018-02-25T09:11:58.944Z,18.85
2018-02-25T09:13:09.146Z,18.76
2018-02-25T09:14:19.704Z,18.67
2018-02-25T09:15:29.851Z,18.48
2018-02-25T09:16:40.045Z,17.72
2018-02-25T09:17:49.782Z,17.64
2018-02-25T09:19:00.173Z,17.82
2018-02-25T09:20:10.078Z,17.82
2018-02-25T09:21:19.817Z,17.83
2018-02-25T09:22:29.976Z,17.83
2018-02-25T09:23:39.807Z,17.83
2018-02-25T09:24:50.000Z,17.84
2018-02-25T09:26:00.169Z,17.55
2018-02-25T09:27:10.404Z,17.55
2018-02-25T09:28:20.594Z,17.55
2018-02-25T09:29:30.534Z,17.84
2018-02-25T09:30:40.929Z,18.12
2018-02-25T09:31:50.881Z,18.4
2018-02-25T09:33:00.797Z,18.5
2018-02-25T09:34:11.066Z,18.77
2018-02-25T09:35:20.975Z,18.49
2018-02-25T09:36:30.878Z,18.77
2018-02-25T09:37:40.818Z,18.67
2018-02-25T09:38:50.991Z,19.34
2018-02-25T09:40:01.202Z,19.72
2018-02-25T09:41:11.387Z,19.72
2018-02-25T09:42:21.318Z,19.62
2018-02-25T09:43:31.791Z,19.44
2018-02-25T09:44:42.020Z,19.64
2018-02-25T09:45:52.272Z,19.35
2018-02-25T09:47:02.554Z,18.79
2018-02-25T09:48:12.365Z,19.07
2018-02-25T09:49:23.225Z,18.7
2018-02-25T09:50:33.172Z,18.22
2018-02-25T09:51:43.377Z,18.33
2018-02-25T09:52:53.553Z,17.85
2018-02-25T09:54:03.538Z,17.76
2018-02-25T09:55:14.332Z,17.56
2018-02-25T09:56:24.267Z,17.56
2018-02-25T09:57:34.711Z,16.42
2018-02-25T09:58:44.624Z,16.13
2018-02-25T09:59:54.774Z,15.84
2018-02-25T10:01:04.654Z,15.84
2018-02-25T10:02:15.677Z,16.03
2018-02-25T10:03:26.494Z,15.84
2018-02-25T10:04:37.101Z,15.75
2018-02-25T10:05:47.614Z,16.22
2018-02-25T10:06:57.910Z,16.03
2018-02-25T10:08:08.089Z,16.22
2018-02-25T10:09:18.331Z,16.22
2018-02-25T10:10:28.531Z,16.88
2018-02-25T10:11:38.763Z,16.69
2018-02-25T10:12:48.936Z,16.78
2018-02-25T10:13:59.143Z,17.35
2018-02-25T10:15:09.318Z,17.35
2018-02-25T10:16:19.225Z,17.55
2018-02-25T10:18:43.664Z,16.6
2018-02-25T10:19:53.682Z,16.5
2018-02-25T10:21:03.627Z,16.22
2018-02-25T10:22:13.560Z,16.5
2018-02-25T10:23:23.765Z,16.6
2018-02-25T10:24:33.743Z,16.79
2018-02-25T10:25:44.105Z,16.89
2018-02-25T10:26:54.312Z,16.79
2018-02-25T10:28:04.307Z,15.94
2018-02-25T10:29:14.532Z,15.84
2018-02-25T10:30:24.714Z,15.84
2018-02-25T10:31:34.427Z,15.84
2018-02-25T10:32:44.626Z,15.66
2018-02-25T10:33:54.858Z,16.04
2018-02-25T10:35:05.035Z,15.85
2018-02-25T10:36:15.229Z,15.85
2018-02-25T10:37:25.448Z,15.95
2018-02-25T10:38:35.615Z,15.37
2018-02-25T10:39:45.845Z,15.75
2018-02-25T10:40:56.038Z,15.56
2018-02-25T10:42:05.973Z,15.56
2018-02-25T10:43:15.730Z,15.27
2018-02-25T10:44:25.918Z,15.17
2018-02-25T10:45:36.118Z,15.46
2018-02-25T10:46:46.323Z,15.27
2018-02-25T10:47:56.492Z,15.08
2018-02-25T10:49:06.814Z,15.17
2018-02-25T10:50:17.001Z,15.56
2018-02-25T10:51:27.180Z,15.56
2018-02-25T10:52:37.173Z,15.28
2018-02-25T10:53:47.407Z,14.8
2018-02-25T10:54:57.690Z,14.7
2018-02-25T10:56:07.585Z,14.61
2018-02-25T10:57:17.520Z,14.7
2018-02-25T10:58:27.654Z,14.79
2018-02-25T10:59:37.863Z,15.55
2018-02-25T11:00:48.102Z,15.73
2018-02-25T11:01:58.104Z,16.02
2018-02-25T11:03:08.026Z,16.21
2018-02-25T11:04:18.286Z,16.4
2018-02-25T11:05:28.495Z,16.4
2018-02-25T11:06:38.617Z,16.5
2018-02-25T11:07:48.816Z,16.41
2018-02-25T11:08:58.749Z,16.12
2018-02-25T11:10:09.117Z,16.03
2018-02-25T11:11:19.672Z,16.3
2018-02-25T11:12:29.873Z,16.5
2018-02-25T11:13:40.116Z,16.77
2018-02-25T11:14:50.374Z,17.43
2018-02-25T11:16:00.323Z,17.9
2018-02-25T11:17:10.570Z,18.65
2018-02-25T11:18:20.868Z,18.74
2018-02-25T11:19:31.045Z,19.22
2018-02-25T11:20:41.264Z,19.22
2018-02-25T11:21:51.560Z,18.76
2018-02-25T11:23:02.760Z,18.76
2018-02-25T11:24:12.982Z,18.85
2018-02-25T11:25:23.259Z,18.76
2018-02-25T11:26:33.453Z,18.95
2018-02-25T11:27:43.124Z,18.85
2018-02-25T11:28:53.327Z,18.66
2018-02-25T11:30:03.550Z,19.33
2018-02-25T11:31:13.731Z,19.6
2018-02-25T11:32:25.201Z,19.89
2018-02-25T11:33:35.145Z,19.7
2018-02-25T11:34:45.350Z,20.17
2018-02-25T11:35:55.554Z,20.17
2018-02-25T11:37:05.487Z,20.17
2018-02-25T11:38:15.684Z,20.09
2018-02-25T11:39:25.642Z,20.09
2018-02-25T11:40:35.932Z,19.61
2018-02-25T11:41:46.173Z,20
2018-02-25T11:42:56.447Z,19.34
2018-02-25T11:44:06.676Z,19.24
2018-02-25T11:45:16.883Z,18.96
2018-02-25T11:46:26.726Z,18.59
2018-02-25T11:47:36.721Z,18.4
2018-02-25T11:48:47.256Z,18.31
2018-02-25T11:49:57.341Z,18.02
2018-02-25T11:51:07.715Z,18.02
2018-02-25T11:52:17.996Z,18.01
2018-02-25T11:53:28.534Z,18.1
2018-02-25T11:54:38.740Z,18.96
2018-02-25T11:55:48.773Z,18.86
2018-02-25T11:56:59.258Z,19.23
2018-02-25T11:58:09.459Z,19.13
2018-02-25T11:59:19.915Z,19.13
2018-02-25T12:00:29.911Z,19.23
2018-02-25T12:01:39.518Z,19.42
2018-02-25T12:02:49.735Z,19.7
2018-02-25T12:03:59.838Z,20.09
2018-02-25T12:05:10.096Z,20.18
2018-02-25T12:06:20.347Z,20.09
2018-02-25T12:07:30.249Z,20.09
2018-02-25T12:08:40.465Z,20
2018-02-25T12:09:50.662Z,19.43
2018-02-25T12:11:01.132Z,19.15
2018-02-25T12:12:10.991Z,19.16
2018-02-25T12:13:21.303Z,18.86
2018-02-25T12:14:31.484Z,18.77
2018-02-25T12:15:41.482Z,18.96
2018-02-25T12:16:51.731Z,19.24
2018-02-25T12:18:02.210Z,19.42
2018-02-25T12:19:12.423Z,19.23
2018-02-25T12:20:22.657Z,19.42
2018-02-25T12:21:32.900Z,19.42
2018-02-25T12:22:42.847Z,19.6
2018-02-25T12:23:53.075Z,19.98
2018-02-25T12:25:03.243Z,20.36
2018-02-25T12:26:13.397Z,20.73
2018-02-25T12:27:23.235Z,21.01
2018-02-25T12:28:32.806Z,20.82
2018-02-25T12:29:44.000Z,21.2
2018-02-25T12:30:54.201Z,21.01
2018-02-25T12:32:04.267Z,21.39
2018-02-25T12:33:14.451Z,21.57
2018-02-25T12:34:24.211Z,21.47
2018-02-25T12:35:34.507Z,22.05
2018-02-25T12:36:44.744Z,22.05
2018-02-25T12:37:54.681Z,22.05
2018-02-25T12:39:04.601Z,22.32
2018-02-25T12:40:14.554Z,22.7
2018-02-25T12:41:24.838Z,22.8
2018-02-25T12:42:35.021Z,22.8
2018-02-25T12:43:45.221Z,22.99
2018-02-25T12:44:54.889Z,22.99
2018-02-25T12:46:05.058Z,22.8
2018-02-25T12:47:15.307Z,22.7
2018-02-25T12:48:25.480Z,23.18
2018-02-25T12:49:37.320Z,23.27
2018-02-25T12:50:47.496Z,23.27
2018-02-25T12:51:57.289Z,23.36
2018-02-25T12:53:07.234Z,23.36
2018-02-25T12:54:17.656Z,23.35
2018-02-25T12:55:27.889Z,23.07
2018-02-25T12:56:38.081Z,24.11
2018-02-25T12:57:48.101Z,23.92
2018-02-25T12:58:58.434Z,23.72
2018-02-25T13:00:08.613Z,24.1
2018-02-25T13:01:18.796Z,24.38
2018-02-25T13:02:28.964Z,24.38
2018-02-25T13:03:39.137Z,24.57
2018-02-25T13:04:49.508Z,24.76
2018-02-25T13:05:59.776Z,24.48
2018-02-25T13:07:09.965Z,24.38
2018-02-25T13:08:20.168Z,24.57
2018-02-25T13:09:30.373Z,24.67
2018-02-25T13:10:40.582Z,24.76
2018-02-25T13:11:50.778Z,24.95
2018-02-25T13:13:00.947Z,24.95
2018-02-25T13:14:10.926Z,24.86
2018-02-25T13:15:21.421Z,25.05
2018-02-25T13:16:31.660Z,25.24
2018-02-25T13:17:41.910Z,25.24
2018-02-25T13:18:52.188Z,25.43
2018-02-25T13:20:02.427Z,25.34
2018-02-25T13:21:12.629Z,25.24
2018-02-25T13:22:22.838Z,25.14
2018-02-25T13:23:33.013Z,25.24
2018-02-25T13:24:43.302Z,25.34
2018-02-25T13:25:53.242Z,25.62
2018-02-25T13:27:03.462Z,25.43
2018-02-25T13:28:14.001Z,25.62
2018-02-25T13:29:24.186Z,25.71
2018-02-25T13:30:34.013Z,25.6
2018-02-25T13:31:44.065Z,25.6
2018-02-25T13:32:54.136Z,25.89
2018-02-25T13:34:03.862Z,26.17
2018-02-25T13:35:13.888Z,25.79
2018-02-25T13:36:23.350Z,25.98
2018-02-25T13:37:33.081Z,26.93
2018-02-25T13:38:43.281Z,26.84
2018-02-25T13:39:53.496Z,27.68
2018-02-25T13:41:03.675Z,27.87
2018-02-25T13:42:13.899Z,27.96
2018-02-25T13:43:23.833Z,27.96
2018-02-25T13:44:33.753Z,28.53
2018-02-25T13:45:44.124Z,28.72
2018-02-25T13:46:54.298Z,29.19
2018-02-25T13:48:03.921Z,29.29
2018-02-25T13:49:14.104Z,29.1
2018-02-25T13:50:24.514Z,28.91
2018-02-25T13:51:35.024Z,29.19
2018-02-25T13:52:45.223Z,29.48
2018-02-25T13:53:55.464Z,29.57
2018-02-25T13:55:05.417Z,29.67
2018-02-25T13:56:15.603Z,29.84
2018-02-25T13:57:25.552Z,29.84
2018-02-25T13:58:35.947Z,29.84
2018-02-25T13:59:46.004Z,30.03
2018-02-25T14:00:55.903Z,30.03
2018-02-25T14:02:06.092Z,30.03
2018-02-25T14:03:16.277Z,30.22
2018-02-25T14:04:26.453Z,30.22
2018-02-25T14:05:36.679Z,30.51
2018-02-25T14:06:46.641Z,30.51
2018-02-25T14:07:56.927Z,30.6
2018-02-25T14:09:07.148Z,30.69
2018-02-25T14:10:16.699Z,30.88
2018-02-25T14:11:26.889Z,30.88
2018-02-25T14:12:37.168Z,31.07
2018-02-25T14:13:47.033Z,31.36
2018-02-25T14:14:57.211Z,31.55
2018-02-25T14:16:07.422Z,31.55
2018-02-25T14:17:17.649Z,31.45
2018-02-25T14:18:27.557Z,31.64
2018-02-25T14:19:37.935Z,31.64
2018-02-25T14:20:47.835Z,31.55
2018-02-25T14:21:58.071Z,31.07
2018-02-25T14:23:07.667Z,31.26
2018-02-25T14:24:17.929Z,31.74
2018-02-25T14:25:28.148Z,31.64
2018-02-25T14:26:37.980Z,32.12
2018-02-25T14:27:48.192Z,32.02
2018-02-25T14:28:58.401Z,32.02
2018-02-25T14:30:08.616Z,32.31
2018-02-25T14:31:18.814Z,32.4
2018-02-25T14:32:28.826Z,32.21
2018-02-25T14:33:39.082Z,32.12
2018-02-25T14:34:49.322Z,32.21
2018-02-25T14:35:59.599Z,32.5
2018-02-25T14:37:09.825Z,32.59
2018-02-25T14:38:20.124Z,32.4
2018-02-25T14:39:30.315Z,32.68
2018-02-25T14:40:40.565Z,32.67
2018-02-25T14:41:50.523Z,32.76
2018-02-25T14:43:00.447Z,32.78
2018-02-25T14:44:10.641Z,32.87
2018-02-25T14:45:20.595Z,33.14
2018-02-25T14:46:30.821Z,33.63
2018-02-25T14:47:40.671Z,33.44
2018-02-25T14:48:51.068Z,33.54
2018-02-25T14:50:01.323Z,33.63
2018-02-25T14:51:11.290Z,33.73
2018-02-25T14:52:21.509Z,33.73
2018-02-25T14:53:31.860Z,33.63
2018-02-25T14:54:42.130Z,33.63
2018-02-25T14:55:52.043Z,33.54
2018-02-25T14:57:01.947Z,33.63
2018-02-25T14:58:12.316Z,33.63
2018-02-25T14:59:22.690Z,33.92
2018-02-25T15:00:32.725Z,34.01
2018-02-25T15:01:42.890Z,33.82
2018-02-25T15:02:53.031Z,33.82
2018-02-25T15:04:03.243Z,33.82
2018-02-25T15:05:13.455Z,33.82
2018-02-25T15:06:23.785Z,33.92
2018-02-25T15:07:34.155Z,34.2
2018-02-25T15:08:44.027Z,34.2